sensor_id;sensor_type;location;lat;lon;timestamp;temperature;humidity
53294;DHT22;39181;53.440;5.644;2023-07-08T00:00:26;17.00;99.90
53294;DHT22;39181;53.440;5.644;2023-07-08T00:02:52;17.00;99.90
53294;DHT22;39181;53.440;5.644;2023-07-08T00:05:21;16.90;99.90
53294;DHT22;39181;53.440;5.644;2023-07-08T00:07:48;17.00;99.90
53294;DHT22;39181;53.440;5.644;2023-07-08T00:12:40;16.90;99.90
53294;DHT22;39181;53.440;5.644;2023-07-08T00:15:06;16.90;99.90
53294;DHT22;39181;53.440;5.644;2023-07-08T00:17:31;16.90;99.90
53294;DHT22;39181;53.440;5.644;2023-07-08T00:19:57;16.90;99.90
53294;DHT22;39181;53.440;5.644;2023-07-08T00:22:23;16.80;99.90
53294;DHT22;39181;53.440;5.644;2023-07-08T00:24:50;16.80;99.90
53294;DHT22;39181;53.440;5.644;2023-07-08T00:27:16;16.70;99.90
53294;DHT22;39181;53.440;5.644;2023-07-08T00:29:42;16.70;99.90
53294;DHT22;39181;53.440;5.644;2023-07-08T00:32:11;16.60;99.90
53294;DHT22;39181;53.440;5.644;2023-07-08T00:34:37;16.60;99.90
53294;DHT22;39181;53.440;5.644;2023-07-08T00:37:03;16.60;99.90
53294;DHT22;39181;53.440;5.644;2023-07-08T00:39:31;16.60;99.90
53294;DHT22;39181;53.440;5.644;2023-07-08T00:42:00;16.60;99.90
53294;DHT22;39181;53.440;5.644;2023-07-08T00:44:26;16.50;99.90
53294;DHT22;39181;53.440;5.644;2023-07-08T00:47:02;16.50;99.90
53294;DHT22;39181;53.440;5.644;2023-07-08T00:49:45;16.50;99.90
53294;DHT22;39181;53.440;5.644;2023-07-08T00:52:28;16.50;99.90
53294;DHT22;39181;53.440;5.644;2023-07-08T00:54:56;16.40;99.90
53294;DHT22;39181;53.440;5.644;2023-07-08T00:57:26;16.40;99.90
53294;DHT22;39181;53.440;5.644;2023-07-08T01:00:10;16.40;99.90
53294;DHT22;39181;53.440;5.644;2023-07-08T01:02:39;16.40;99.90
53294;DHT22;39181;53.440;5.644;2023-07-08T01:05:11;16.50;99.90
53294;DHT22;39181;53.440;5.644;2023-07-08T01:07:40;16.40;99.90
53294;DHT22;39181;53.440;5.644;2023-07-08T01:10:11;16.50;99.90
53294;DHT22;39181;53.440;5.644;2023-07-08T01:12:44;16.70;99.90
53294;DHT22;39181;53.440;5.644;2023-07-08T01:15:12;16.50;99.90
53294;DHT22;39181;53.440;5.644;2023-07-08T01:17:40;16.50;99.90
53294;DHT22;39181;53.440;5.644;2023-07-08T01:20:07;16.50;99.90
53294;DHT22;39181;53.440;5.644;2023-07-08T01:22:39;16.50;99.90
53294;DHT22;39181;53.440;5.644;2023-07-08T01:25:06;16.50;99.90
53294;DHT22;39181;53.440;5.644;2023-07-08T01:27:35;16.50;99.90
53294;DHT22;39181;53.440;5.644;2023-07-08T01:30:04;16.50;99.90
53294;DHT22;39181;53.440;5.644;2023-07-08T01:32:31;16.40;99.90
53294;DHT22;39181;53.440;5.644;2023-07-08T01:35:01;16.40;99.90
53294;DHT22;39181;53.440;5.644;2023-07-08T01:37:36;16.40;99.90
53294;DHT22;39181;53.440;5.644;2023-07-08T01:40:38;16.40;99.90
53294;DHT22;39181;53.440;5.644;2023-07-08T01:43:05;16.40;99.90
53294;DHT22;39181;53.440;5.644;2023-07-08T01:45:38;16.40;99.90
53294;DHT22;39181;53.440;5.644;2023-07-08T01:48:04;16.40;99.90
53294;DHT22;39181;53.440;5.644;2023-07-08T01:50:32;16.40;99.90
53294;DHT22;39181;53.440;5.644;2023-07-08T01:53:00;16.40;99.90
53294;DHT22;39181;53.440;5.644;2023-07-08T01:55:28;16.40;99.90
53294;DHT22;39181;53.440;5.644;2023-07-08T01:57:57;16.40;99.90
53294;DHT22;39181;53.440;5.644;2023-07-08T02:00:22;16.30;99.90
53294;DHT22;39181;53.440;5.644;2023-07-08T02:02:49;16.40;99.90
53294;DHT22;39181;53.440;5.644;2023-07-08T02:05:15;16.40;99.90
53294;DHT22;39181;53.440;5.644;2023-07-08T02:07:41;16.30;99.90
53294;DHT22;39181;53.440;5.644;2023-07-08T02:10:07;16.40;99.90
53294;DHT22;39181;53.440;5.644;2023-07-08T02:12:33;16.40;99.90
53294;DHT22;39181;53.440;5.644;2023-07-08T02:15:02;16.40;99.90
53294;DHT22;39181;53.440;5.644;2023-07-08T02:17:28;16.50;99.90
53294;DHT22;39181;53.440;5.644;2023-07-08T02:19:55;16.40;99.90
53294;DHT22;39181;53.440;5.644;2023-07-08T02:22:21;16.40;99.90
53294;DHT22;39181;53.440;5.644;2023-07-08T02:24:46;16.50;99.90
53294;DHT22;39181;53.440;5.644;2023-07-08T02:27:13;16.40;99.90
53294;DHT22;39181;53.440;5.644;2023-07-08T02:29:39;16.50;99.90
53294;DHT22;39181;53.440;5.644;2023-07-08T02:32:05;16.50;99.90
53294;DHT22;39181;53.440;5.644;2023-07-08T02:34:30;16.50;99.90
53294;DHT22;39181;53.440;5.644;2023-07-08T02:36:56;16.40;99.90
53294;DHT22;39181;53.440;5.644;2023-07-08T02:39:22;16.40;99.90
53294;DHT22;39181;53.440;5.644;2023-07-08T02:41:48;16.50;99.90
53294;DHT22;39181;53.440;5.644;2023-07-08T02:44:14;16.50;99.90
53294;DHT22;39181;53.440;5.644;2023-07-08T02:46:39;16.40;99.90
53294;DHT22;39181;53.440;5.644;2023-07-08T02:49:05;16.50;99.90
53294;DHT22;39181;53.440;5.644;2023-07-08T02:51:31;16.50;99.90
53294;DHT22;39181;53.440;5.644;2023-07-08T02:53:57;16.50;99.90
53294;DHT22;39181;53.440;5.644;2023-07-08T02:56:22;16.50;99.90
53294;DHT22;39181;53.440;5.644;2023-07-08T02:58:49;16.60;99.90
53294;DHT22;39181;53.440;5.644;2023-07-08T03:01:15;16.60;99.90
53294;DHT22;39181;53.440;5.644;2023-07-08T03:03:47;16.60;99.90
53294;DHT22;39181;53.440;5.644;2023-07-08T03:06:13;16.60;99.90
53294;DHT22;39181;53.440;5.644;2023-07-08T03:08:38;16.60;99.90
53294;DHT22;39181;53.440;5.644;2023-07-08T03:11:06;16.60;99.90
53294;DHT22;39181;53.440;5.644;2023-07-08T03:13:32;16.60;99.90
53294;DHT22;39181;53.440;5.644;2023-07-08T03:16:00;16.60;99.90
53294;DHT22;39181;53.440;5.644;2023-07-08T03:18:26;16.60;99.90
53294;DHT22;39181;53.440;5.644;2023-07-08T03:20:56;16.60;99.90
53294;DHT22;39181;53.440;5.644;2023-07-08T03:23:22;16.50;99.90
53294;DHT22;39181;53.440;5.644;2023-07-08T03:25:49;16.60;99.90
53294;DHT22;39181;53.440;5.644;2023-07-08T03:28:15;16.50;99.90
53294;DHT22;39181;53.440;5.644;2023-07-08T03:30:42;16.60;99.90
53294;DHT22;39181;53.440;5.644;2023-07-08T03:33:08;16.60;99.90
53294;DHT22;39181;53.440;5.644;2023-07-08T03:35:34;16.60;99.90
53294;DHT22;39181;53.440;5.644;2023-07-08T03:38:00;16.60;99.90
53294;DHT22;39181;53.440;5.644;2023-07-08T03:40:25;16.60;99.90
53294;DHT22;39181;53.440;5.644;2023-07-08T03:42:51;16.60;99.90
53294;DHT22;39181;53.440;5.644;2023-07-08T03:45:16;16.70;99.90
53294;DHT22;39181;53.440;5.644;2023-07-08T03:47:42;16.70;99.90
53294;DHT22;39181;53.440;5.644;2023-07-08T03:50:28;16.70;99.90
53294;DHT22;39181;53.440;5.644;2023-07-08T03:52:54;16.70;99.90
53294;DHT22;39181;53.440;5.644;2023-07-08T03:55:21;16.80;99.90
53294;DHT22;39181;53.440;5.644;2023-07-08T03:57:47;16.90;99.90
53294;DHT22;39181;53.440;5.644;2023-07-08T04:00:13;17.20;99.90
53294;DHT22;39181;53.440;5.644;2023-07-08T04:02:41;17.30;99.90
53294;DHT22;39181;53.440;5.644;2023-07-08T04:05:09;17.30;99.90
53294;DHT22;39181;53.440;5.644;2023-07-08T04:07:36;17.30;99.90
53294;DHT22;39181;53.440;5.644;2023-07-08T04:10:01;17.30;99.90
53294;DHT22;39181;53.440;5.644;2023-07-08T04:12:27;17.30;99.90
53294;DHT22;39181;53.440;5.644;2023-07-08T04:14:53;17.30;99.90
53294;DHT22;39181;53.440;5.644;2023-07-08T04:17:19;17.20;99.90
53294;DHT22;39181;53.440;5.644;2023-07-08T04:19:44;17.20;99.90
53294;DHT22;39181;53.440;5.644;2023-07-08T04:22:10;17.20;99.90
53294;DHT22;39181;53.440;5.644;2023-07-08T04:24:36;17.20;99.90
53294;DHT22;39181;53.440;5.644;2023-07-08T04:27:02;17.20;99.90
53294;DHT22;39181;53.440;5.644;2023-07-08T04:29:28;17.20;99.90
53294;DHT22;39181;53.440;5.644;2023-07-08T04:31:54;17.20;99.90
53294;DHT22;39181;53.440;5.644;2023-07-08T04:34:20;17.30;99.90
53294;DHT22;39181;53.440;5.644;2023-07-08T04:36:46;17.30;99.90
53294;DHT22;39181;53.440;5.644;2023-07-08T04:39:13;17.40;99.90
53294;DHT22;39181;53.440;5.644;2023-07-08T04:41:40;17.40;99.90
53294;DHT22;39181;53.440;5.644;2023-07-08T04:44:07;17.40;99.90
53294;DHT22;39181;53.440;5.644;2023-07-08T04:46:51;17.50;99.90
53294;DHT22;39181;53.440;5.644;2023-07-08T04:49:18;17.60;99.90
53294;DHT22;39181;53.440;5.644;2023-07-08T04:51:44;17.60;99.90
53294;DHT22;39181;53.440;5.644;2023-07-08T04:54:10;17.60;99.90
53294;DHT22;39181;53.440;5.644;2023-07-08T04:56:41;17.60;99.90
53294;DHT22;39181;53.440;5.644;2023-07-08T04:59:12;17.80;99.90
53294;DHT22;39181;53.440;5.644;2023-07-08T05:01:39;17.80;99.90
53294;DHT22;39181;53.440;5.644;2023-07-08T05:04:05;17.90;99.90
53294;DHT22;39181;53.440;5.644;2023-07-08T05:06:32;18.00;99.90
53294;DHT22;39181;53.440;5.644;2023-07-08T05:09:02;18.00;99.90
53294;DHT22;39181;53.440;5.644;2023-07-08T05:11:28;18.10;99.90
53294;DHT22;39181;53.440;5.644;2023-07-08T05:13:54;18.30;99.90
53294;DHT22;39181;53.440;5.644;2023-07-08T05:16:20;18.40;99.90
53294;DHT22;39181;53.440;5.644;2023-07-08T05:18:46;18.60;99.90
53294;DHT22;39181;53.440;5.644;2023-07-08T05:21:12;18.90;99.90
53294;DHT22;39181;53.440;5.644;2023-07-08T05:23:38;19.10;99.90
53294;DHT22;39181;53.440;5.644;2023-07-08T05:26:05;19.20;99.90
53294;DHT22;39181;53.440;5.644;2023-07-08T05:28:30;19.30;99.90
53294;DHT22;39181;53.440;5.644;2023-07-08T05:30:57;19.20;99.90
53294;DHT22;39181;53.440;5.644;2023-07-08T05:33:27;19.20;99.90
53294;DHT22;39181;53.440;5.644;2023-07-08T05:35:53;19.20;99.90
53294;DHT22;39181;53.440;5.644;2023-07-08T05:38:20;19.30;99.90
53294;DHT22;39181;53.440;5.644;2023-07-08T05:40:54;19.40;99.90
53294;DHT22;39181;53.440;5.644;2023-07-08T05:43:21;19.40;99.90
53294;DHT22;39181;53.440;5.644;2023-07-08T05:45:47;19.50;99.90
53294;DHT22;39181;53.440;5.644;2023-07-08T05:48:12;19.50;99.90
53294;DHT22;39181;53.440;5.644;2023-07-08T05:50:39;19.60;99.90
53294;DHT22;39181;53.440;5.644;2023-07-08T05:53:05;19.60;99.90
53294;DHT22;39181;53.440;5.644;2023-07-08T05:55:32;19.70;99.90
53294;DHT22;39181;53.440;5.644;2023-07-08T05:57:57;19.80;99.90
53294;DHT22;39181;53.440;5.644;2023-07-08T06:00:23;19.90;99.90
53294;DHT22;39181;53.440;5.644;2023-07-08T06:02:49;19.90;99.90
53294;DHT22;39181;53.440;5.644;2023-07-08T06:05:15;19.90;99.90
53294;DHT22;39181;53.440;5.644;2023-07-08T06:07:40;20.10;99.90
53294;DHT22;39181;53.440;5.644;2023-07-08T06:10:06;20.20;99.90
53294;DHT22;39181;53.440;5.644;2023-07-08T06:12:32;20.50;99.90
53294;DHT22;39181;53.440;5.644;2023-07-08T06:14:58;21.40;99.90
53294;DHT22;39181;53.440;5.644;2023-07-08T06:17:24;22.40;99.90
53294;DHT22;39181;53.440;5.644;2023-07-08T06:19:49;23.40;99.90
53294;DHT22;39181;53.440;5.644;2023-07-08T06:22:15;23.70;99.90
53294;DHT22;39181;53.440;5.644;2023-07-08T06:24:40;24.30;99.90
53294;DHT22;39181;53.440;5.644;2023-07-08T06:27:06;24.80;99.90
53294;DHT22;39181;53.440;5.644;2023-07-08T06:29:33;25.20;99.90
53294;DHT22;39181;53.440;5.644;2023-07-08T06:32:00;25.40;99.90
53294;DHT22;39181;53.440;5.644;2023-07-08T06:34:25;25.70;99.90
53294;DHT22;39181;53.440;5.644;2023-07-08T06:36:51;25.80;99.90
53294;DHT22;39181;53.440;5.644;2023-07-08T06:39:17;25.70;99.90
53294;DHT22;39181;53.440;5.644;2023-07-08T06:41:43;25.60;99.90
53294;DHT22;39181;53.440;5.644;2023-07-08T06:44:09;25.60;99.90
53294;DHT22;39181;53.440;5.644;2023-07-08T06:46:34;25.50;99.90
53294;DHT22;39181;53.440;5.644;2023-07-08T06:49:00;25.20;99.90
53294;DHT22;39181;53.440;5.644;2023-07-08T06:51:27;25.20;99.90
53294;DHT22;39181;53.440;5.644;2023-07-08T06:53:52;25.20;99.90
53294;DHT22;39181;53.440;5.644;2023-07-08T06:56:18;25.30;99.90
53294;DHT22;39181;53.440;5.644;2023-07-08T06:58:44;25.20;99.90
53294;DHT22;39181;53.440;5.644;2023-07-08T07:01:09;25.10;99.90
53294;DHT22;39181;53.440;5.644;2023-07-08T07:03:35;24.80;99.90
53294;DHT22;39181;53.440;5.644;2023-07-08T07:06:01;24.70;99.90
53294;DHT22;39181;53.440;5.644;2023-07-08T07:08:26;24.70;99.90
53294;DHT22;39181;53.440;5.644;2023-07-08T07:10:53;24.70;99.90
53294;DHT22;39181;53.440;5.644;2023-07-08T07:13:18;24.50;99.90
53294;DHT22;39181;53.440;5.644;2023-07-08T07:15:44;24.30;99.90
53294;DHT22;39181;53.440;5.644;2023-07-08T07:18:09;24.30;99.90
53294;DHT22;39181;53.440;5.644;2023-07-08T07:20:37;24.50;99.90
53294;DHT22;39181;53.440;5.644;2023-07-08T07:23:03;24.50;99.90
53294;DHT22;39181;53.440;5.644;2023-07-08T07:25:28;24.30;99.90
53294;DHT22;39181;53.440;5.644;2023-07-08T07:27:54;24.40;99.90
53294;DHT22;39181;53.440;5.644;2023-07-08T07:30:20;24.30;99.90
53294;DHT22;39181;53.440;5.644;2023-07-08T07:32:46;24.20;99.90
53294;DHT22;39181;53.440;5.644;2023-07-08T07:35:12;24.30;99.90
53294;DHT22;39181;53.440;5.644;2023-07-08T07:37:41;24.30;99.90
53294;DHT22;39181;53.440;5.644;2023-07-08T07:40:09;24.20;99.90
53294;DHT22;39181;53.440;5.644;2023-07-08T07:42:38;24.20;99.90
53294;DHT22;39181;53.440;5.644;2023-07-08T07:45:04;24.30;99.90
53294;DHT22;39181;53.440;5.644;2023-07-08T07:47:30;24.30;99.90
53294;DHT22;39181;53.440;5.644;2023-07-08T07:49:56;24.30;99.90
53294;DHT22;39181;53.440;5.644;2023-07-08T07:52:22;24.50;99.90
53294;DHT22;39181;53.440;5.644;2023-07-08T07:54:51;24.50;99.90
53294;DHT22;39181;53.440;5.644;2023-07-08T07:57:16;24.50;99.90
53294;DHT22;39181;53.440;5.644;2023-07-08T07:59:42;24.60;99.90
53294;DHT22;39181;53.440;5.644;2023-07-08T08:02:08;24.60;99.90
53294;DHT22;39181;53.440;5.644;2023-07-08T08:04:34;24.50;99.90
53294;DHT22;39181;53.440;5.644;2023-07-08T08:06:59;24.60;99.90
53294;DHT22;39181;53.440;5.644;2023-07-08T08:09:25;24.70;99.90
53294;DHT22;39181;53.440;5.644;2023-07-08T08:11:51;24.60;99.90
53294;DHT22;39181;53.440;5.644;2023-07-08T08:14:18;24.50;99.90
53294;DHT22;39181;53.440;5.644;2023-07-08T08:16:44;24.60;99.90
53294;DHT22;39181;53.440;5.644;2023-07-08T08:19:09;24.70;99.90
53294;DHT22;39181;53.440;5.644;2023-07-08T08:21:35;24.70;99.90
53294;DHT22;39181;53.440;5.644;2023-07-08T08:24:01;24.60;99.90
53294;DHT22;39181;53.440;5.644;2023-07-08T08:26:26;24.70;99.90
53294;DHT22;39181;53.440;5.644;2023-07-08T08:28:52;24.80;99.90
53294;DHT22;39181;53.440;5.644;2023-07-08T08:31:18;24.90;99.90
53294;DHT22;39181;53.440;5.644;2023-07-08T08:33:44;25.00;99.90
53294;DHT22;39181;53.440;5.644;2023-07-08T08:36:09;25.20;99.90
53294;DHT22;39181;53.440;5.644;2023-07-08T08:38:35;25.20;99.90
53294;DHT22;39181;53.440;5.644;2023-07-08T08:41:13;25.10;99.90
53294;DHT22;39181;53.440;5.644;2023-07-08T08:43:39;25.20;99.90
53294;DHT22;39181;53.440;5.644;2023-07-08T08:51:46;25.30;99.90
53294;DHT22;39181;53.440;5.644;2023-07-08T08:54:12;25.40;99.90
53294;DHT22;39181;53.440;5.644;2023-07-08T08:59:42;25.50;99.90
53294;DHT22;39181;53.440;5.644;2023-07-08T09:04:59;25.60;99.90
53294;DHT22;39181;53.440;5.644;2023-07-08T09:07:28;25.70;99.90
53294;DHT22;39181;53.440;5.644;2023-07-08T09:10:04;25.80;99.90
53294;DHT22;39181;53.440;5.644;2023-07-08T09:12:34;25.90;99.90
53294;DHT22;39181;53.440;5.644;2023-07-08T09:14:59;26.00;99.90
53294;DHT22;39181;53.440;5.644;2023-07-08T09:17:31;26.00;99.90
53294;DHT22;39181;53.440;5.644;2023-07-08T09:22:44;26.20;99.90
53294;DHT22;39181;53.440;5.644;2023-07-08T09:25:27;26.30;99.90
53294;DHT22;39181;53.440;5.644;2023-07-08T09:27:55;26.40;99.90
53294;DHT22;39181;53.440;5.644;2023-07-08T09:30:22;26.50;99.90
53294;DHT22;39181;53.440;5.644;2023-07-08T09:32:48;26.40;99.90
53294;DHT22;39181;53.440;5.644;2023-07-08T09:35:26;26.50;99.90
53294;DHT22;39181;53.440;5.644;2023-07-08T09:37:53;26.70;99.90
53294;DHT22;39181;53.440;5.644;2023-07-08T09:40:31;26.80;99.90
53294;DHT22;39181;53.440;5.644;2023-07-08T09:43:26;27.10;99.90
53294;DHT22;39181;53.440;5.644;2023-07-08T09:45:57;27.30;99.90
53294;DHT22;39181;53.440;5.644;2023-07-08T09:48:27;27.50;99.90
53294;DHT22;39181;53.440;5.644;2023-07-08T09:50:56;27.60;99.90
53294;DHT22;39181;53.440;5.644;2023-07-08T09:53:23;27.70;99.90
53294;DHT22;39181;53.440;5.644;2023-07-08T09:55:50;27.70;99.90
53294;DHT22;39181;53.440;5.644;2023-07-08T09:58:29;27.70;99.90
53294;DHT22;39181;53.440;5.644;2023-07-08T10:01:09;27.70;99.90
53294;DHT22;39181;53.440;5.644;2023-07-08T10:03:35;27.70;99.90
53294;DHT22;39181;53.440;5.644;2023-07-08T10:06:26;27.70;99.90
53294;DHT22;39181;53.440;5.644;2023-07-08T10:08:54;27.50;99.90
53294;DHT22;39181;53.440;5.644;2023-07-08T10:13:53;27.50;99.90
53294;DHT22;39181;53.440;5.644;2023-07-08T10:16:33;27.50;99.90
53294;DHT22;39181;53.440;5.644;2023-07-08T10:19:00;27.60;99.90
53294;DHT22;39181;53.440;5.644;2023-07-08T10:21:36;27.60;99.90
53294;DHT22;39181;53.440;5.644;2023-07-08T10:26:32;27.80;99.90
53294;DHT22;39181;53.440;5.644;2023-07-08T10:29:31;27.90;99.90
53294;DHT22;39181;53.440;5.644;2023-07-08T10:35:18;27.90;99.90
53294;DHT22;39181;53.440;5.644;2023-07-08T10:38:21;27.90;99.90
53294;DHT22;39181;53.440;5.644;2023-07-08T10:40:53;27.90;99.90
53294;DHT22;39181;53.440;5.644;2023-07-08T10:52:12;27.80;99.90
53294;DHT22;39181;53.440;5.644;2023-07-08T10:54:51;27.90;99.90
53294;DHT22;39181;53.440;5.644;2023-07-08T10:57:49;27.90;99.90
53294;DHT22;39181;53.440;5.644;2023-07-08T11:06:15;27.90;99.90
53294;DHT22;39181;53.440;5.644;2023-07-08T11:08:55;27.80;99.90
53294;DHT22;39181;53.440;5.644;2023-07-08T11:11:47;27.80;99.90
53294;DHT22;39181;53.440;5.644;2023-07-08T11:14:37;27.60;99.90
53294;DHT22;39181;53.440;5.644;2023-07-08T11:17:32;27.60;99.90
53294;DHT22;39181;53.440;5.644;2023-07-08T11:20:32;27.50;99.90
53294;DHT22;39181;53.440;5.644;2023-07-08T11:23:06;27.40;99.90
53294;DHT22;39181;53.440;5.644;2023-07-08T11:25:34;27.60;99.90
53294;DHT22;39181;53.440;5.644;2023-07-08T11:28:04;27.60;99.90
53294;DHT22;39181;53.440;5.644;2023-07-08T11:30:32;27.60;99.90
53294;DHT22;39181;53.440;5.644;2023-07-08T11:33:06;27.50;99.90
53294;DHT22;39181;53.440;5.644;2023-07-08T11:35:36;27.40;99.90
53294;DHT22;39181;53.440;5.644;2023-07-08T11:38:03;27.40;99.90
53294;DHT22;39181;53.440;5.644;2023-07-08T11:40:30;27.20;99.90
53294;DHT22;39181;53.440;5.644;2023-07-08T11:43:04;27.30;99.90
53294;DHT22;39181;53.440;5.644;2023-07-08T11:45:38;27.30;99.90
53294;DHT22;39181;53.440;5.644;2023-07-08T11:48:09;27.30;99.90
53294;DHT22;39181;53.440;5.644;2023-07-08T11:50:41;27.40;99.90
53294;DHT22;39181;53.440;5.644;2023-07-08T11:53:09;27.40;99.90
53294;DHT22;39181;53.440;5.644;2023-07-08T11:55:57;27.40;99.90
53294;DHT22;39181;53.440;5.644;2023-07-08T11:58:29;27.50;99.90
53294;DHT22;39181;53.440;5.644;2023-07-08T12:03:47;27.50;99.90
53294;DHT22;39181;53.440;5.644;2023-07-08T12:08:55;27.50;99.90
53294;DHT22;39181;53.440;5.644;2023-07-08T12:11:32;27.50;99.90
53294;DHT22;39181;53.440;5.644;2023-07-08T12:13:59;27.50;99.90
53294;DHT22;39181;53.440;5.644;2023-07-08T12:16:27;27.50;99.90
53294;DHT22;39181;53.440;5.644;2023-07-08T12:18:54;27.50;99.90
53294;DHT22;39181;53.440;5.644;2023-07-08T12:21:23;27.40;99.90
53294;DHT22;39181;53.440;5.644;2023-07-08T12:23:51;27.40;99.90
53294;DHT22;39181;53.440;5.644;2023-07-08T12:26:17;27.40;99.90
53294;DHT22;39181;53.440;5.644;2023-07-08T12:28:43;27.20;99.90
53294;DHT22;39181;53.440;5.644;2023-07-08T12:31:15;27.10;99.90
53294;DHT22;39181;53.440;5.644;2023-07-08T12:33:42;27.00;99.90
53294;DHT22;39181;53.440;5.644;2023-07-08T12:36:10;27.00;99.90
53294;DHT22;39181;53.440;5.644;2023-07-08T12:38:41;26.90;99.90
53294;DHT22;39181;53.440;5.644;2023-07-08T12:41:13;27.00;99.90
53294;DHT22;39181;53.440;5.644;2023-07-08T12:43:39;27.10;99.90
53294;DHT22;39181;53.440;5.644;2023-07-08T12:46:05;27.00;99.90
53294;DHT22;39181;53.440;5.644;2023-07-08T12:48:34;27.00;99.90
53294;DHT22;39181;53.440;5.644;2023-07-08T12:51:00;27.00;99.90
53294;DHT22;39181;53.440;5.644;2023-07-08T12:53:25;27.00;99.90
53294;DHT22;39181;53.440;5.644;2023-07-08T12:55:53;26.90;99.90
53294;DHT22;39181;53.440;5.644;2023-07-08T12:58:33;26.90;99.90
53294;DHT22;39181;53.440;5.644;2023-07-08T13:01:02;26.90;99.90
53294;DHT22;39181;53.440;5.644;2023-07-08T13:03:32;26.90;99.90
53294;DHT22;39181;53.440;5.644;2023-07-08T13:06:01;26.80;99.90
53294;DHT22;39181;53.440;5.644;2023-07-08T13:08:30;26.60;99.90
53294;DHT22;39181;53.440;5.644;2023-07-08T13:11:00;26.60;99.90
53294;DHT22;39181;53.440;5.644;2023-07-08T13:13:30;26.50;99.90
53294;DHT22;39181;53.440;5.644;2023-07-08T13:15:57;26.60;99.90
53294;DHT22;39181;53.440;5.644;2023-07-08T13:18:41;26.40;99.90
53294;DHT22;39181;53.440;5.644;2023-07-08T13:21:11;26.50;99.90
53294;DHT22;39181;53.440;5.644;2023-07-08T13:23:38;26.50;99.90
53294;DHT22;39181;53.440;5.644;2023-07-08T13:26:18;26.40;99.90
53294;DHT22;39181;53.440;5.644;2023-07-08T13:28:45;26.50;99.90
53294;DHT22;39181;53.440;5.644;2023-07-08T13:31:23;26.60;99.90
53294;DHT22;39181;53.440;5.644;2023-07-08T13:33:54;26.40;99.90
53294;DHT22;39181;53.440;5.644;2023-07-08T13:36:31;26.40;99.90
53294;DHT22;39181;53.440;5.644;2023-07-08T13:38:57;26.20;99.90
53294;DHT22;39181;53.440;5.644;2023-07-08T13:41:23;26.20;99.90
53294;DHT22;39181;53.440;5.644;2023-07-08T13:43:49;26.30;99.90
53294;DHT22;39181;53.440;5.644;2023-07-08T13:46:38;26.30;99.90
53294;DHT22;39181;53.440;5.644;2023-07-08T13:49:13;26.40;99.90
53294;DHT22;39181;53.440;5.644;2023-07-08T13:51:40;26.40;99.90
53294;DHT22;39181;53.440;5.644;2023-07-08T13:54:23;26.30;99.90
53294;DHT22;39181;53.440;5.644;2023-07-08T13:56:50;26.20;99.90
53294;DHT22;39181;53.440;5.644;2023-07-08T13:59:22;26.20;99.90
53294;DHT22;39181;53.440;5.644;2023-07-08T14:01:51;26.10;99.90
53294;DHT22;39181;53.440;5.644;2023-07-08T14:04:20;26.20;99.90
53294;DHT22;39181;53.440;5.644;2023-07-08T14:06:46;26.00;99.90
53294;DHT22;39181;53.440;5.644;2023-07-08T14:09:20;26.00;99.90
53294;DHT22;39181;53.440;5.644;2023-07-08T14:11:46;26.10;99.90
53294;DHT22;39181;53.440;5.644;2023-07-08T14:14:13;26.30;99.90
53294;DHT22;39181;53.440;5.644;2023-07-08T14:16:44;26.20;99.90
53294;DHT22;39181;53.440;5.644;2023-07-08T14:19:14;26.40;99.90
53294;DHT22;39181;53.440;5.644;2023-07-08T14:21:41;26.40;99.90
53294;DHT22;39181;53.440;5.644;2023-07-08T14:24:14;26.20;99.90
53294;DHT22;39181;53.440;5.644;2023-07-08T14:26:43;26.20;99.90
53294;DHT22;39181;53.440;5.644;2023-07-08T14:29:10;26.40;99.90
53294;DHT22;39181;53.440;5.644;2023-07-08T14:31:35;26.40;99.90
53294;DHT22;39181;53.440;5.644;2023-07-08T14:34:06;26.50;99.90
53294;DHT22;39181;53.440;5.644;2023-07-08T14:36:33;26.60;99.90
53294;DHT22;39181;53.440;5.644;2023-07-08T14:38:59;26.50;99.90
53294;DHT22;39181;53.440;5.644;2023-07-08T14:41:26;26.50;99.90
53294;DHT22;39181;53.440;5.644;2023-07-08T14:43:52;26.40;99.90
53294;DHT22;39181;53.440;5.644;2023-07-08T14:46:18;26.40;99.90
53294;DHT22;39181;53.440;5.644;2023-07-08T14:48:43;26.50;99.90
53294;DHT22;39181;53.440;5.644;2023-07-08T14:51:09;26.50;99.90
53294;DHT22;39181;53.440;5.644;2023-07-08T14:53:35;26.40;99.90
53294;DHT22;39181;53.440;5.644;2023-07-08T14:56:06;26.60;99.90
53294;DHT22;39181;53.440;5.644;2023-07-08T14:58:33;26.60;99.90
53294;DHT22;39181;53.440;5.644;2023-07-08T15:01:01;26.60;99.90
53294;DHT22;39181;53.440;5.644;2023-07-08T15:03:33;26.60;99.90
53294;DHT22;39181;53.440;5.644;2023-07-08T15:05:58;26.70;99.90
53294;DHT22;39181;53.440;5.644;2023-07-08T15:08:24;26.80;99.90
53294;DHT22;39181;53.440;5.644;2023-07-08T15:10:51;26.70;99.90
53294;DHT22;39181;53.440;5.644;2023-07-08T15:13:20;26.80;99.90
53294;DHT22;39181;53.440;5.644;2023-07-08T15:15:47;26.80;99.90
53294;DHT22;39181;53.440;5.644;2023-07-08T15:18:16;26.70;99.90
53294;DHT22;39181;53.440;5.644;2023-07-08T15:20:43;26.70;99.90
53294;DHT22;39181;53.440;5.644;2023-07-08T15:23:12;26.60;99.90
53294;DHT22;39181;53.440;5.644;2023-07-08T15:25:41;26.60;99.90
53294;DHT22;39181;53.440;5.644;2023-07-08T15:28:18;26.60;99.90
53294;DHT22;39181;53.440;5.644;2023-07-08T15:30:45;26.50;99.90
53294;DHT22;39181;53.440;5.644;2023-07-08T15:33:15;26.60;99.90
53294;DHT22;39181;53.440;5.644;2023-07-08T15:35:41;26.50;99.90
53294;DHT22;39181;53.440;5.644;2023-07-08T15:38:07;26.60;99.90
53294;DHT22;39181;53.440;5.644;2023-07-08T15:40:38;26.60;99.90
53294;DHT22;39181;53.440;5.644;2023-07-08T15:43:04;26.50;99.90
53294;DHT22;39181;53.440;5.644;2023-07-08T15:45:34;26.60;99.90
53294;DHT22;39181;53.440;5.644;2023-07-08T15:47:59;26.60;99.90
53294;DHT22;39181;53.440;5.644;2023-07-08T15:50:27;26.80;99.90
53294;DHT22;39181;53.440;5.644;2023-07-08T15:52:54;26.70;99.90
53294;DHT22;39181;53.440;5.644;2023-07-08T15:58:01;26.70;99.90
53294;DHT22;39181;53.440;5.644;2023-07-08T16:00:29;26.70;99.90
53294;DHT22;39181;53.440;5.644;2023-07-08T16:03:01;26.60;99.90
53294;DHT22;39181;53.440;5.644;2023-07-08T16:05:28;26.60;99.90
53294;DHT22;39181;53.440;5.644;2023-07-08T16:07:55;26.70;99.90
53294;DHT22;39181;53.440;5.644;2023-07-08T16:10:22;26.60;99.90
53294;DHT22;39181;53.440;5.644;2023-07-08T16:12:50;26.60;99.90
53294;DHT22;39181;53.440;5.644;2023-07-08T16:15:19;26.70;99.90
53294;DHT22;39181;53.440;5.644;2023-07-08T16:17:45;26.60;99.90
53294;DHT22;39181;53.440;5.644;2023-07-08T16:20:23;26.50;99.90
53294;DHT22;39181;53.440;5.644;2023-07-08T16:22:49;26.50;99.90
53294;DHT22;39181;53.440;5.644;2023-07-08T16:25:17;26.50;99.90
53294;DHT22;39181;53.440;5.644;2023-07-08T16:27:47;26.60;99.90